createdAt,value
2022-10-28T00:01:12.180Z,98400.78
2022-10-28T00:03:40.717Z,98396.44
2022-10-28T00:06:10.786Z,98386.44
2022-10-28T00:08:37.868Z,98380.47
2022-10-28T00:11:06.679Z,98391.00
2022-10-28T00:13:33.804Z,98393.44
2022-10-28T00:16:10.223Z,98393.72
2022-10-28T00:18:37.779Z,98393.16
2022-10-28T00:21:06.863Z,98393.16
2022-10-28T00:23:33.545Z,98395.03
2022-10-28T00:26:07.922Z,98396.66
2022-10-28T00:28:34.622Z,98389.34
2022-10-28T00:31:06.670Z,98385.03
2022-10-28T00:33:35.193Z,98394.78
2022-10-28T00:36:09.424Z,98399.63
2022-10-28T00:38:36.217Z,98396.38
2022-10-28T00:41:02.852Z,98403.41
2022-10-28T00:43:37.553Z,98401.56
2022-10-28T00:46:07.334Z,98394.50
2022-10-28T00:48:35.465Z,98395.34
2022-10-28T00:51:02.968Z,98384.50
2022-10-28T00:53:32.361Z,98380.69
2022-10-28T00:56:02.004Z,98381.28
2022-10-28T00:58:29.567Z,98385.06
2022-10-28T01:00:56.659Z,98386.69
2022-10-28T01:03:23.422Z,98383.97
2022-10-28T01:05:52.621Z,98388.81
2022-10-28T01:08:20.251Z,98388.84
2022-10-28T01:11:16.601Z,98383.38
2022-10-28T01:13:54.175Z,98385.00
2022-10-28T01:16:33.569Z,98384.19
2022-10-28T01:19:22.799Z,98379.06
2022-10-28T01:22:06.255Z,98378.78
2022-10-28T01:24:50.420Z,98375.56
2022-10-28T01:27:51.364Z,98382.28
2022-10-28T01:30:20.245Z,98363.09
2022-10-28T01:32:59.964Z,98366.88
2022-10-28T01:35:32.906Z,98363.91
2022-10-28T01:38:15.669Z,98364.69
2022-10-28T01:40:48.132Z,98369.28
2022-10-28T01:43:22.200Z,98363.31
2022-10-28T01:45:52.375Z,98366.53
2022-10-28T01:48:25.783Z,98353.00
2022-10-28T01:50:57.578Z,98354.63
2022-10-28T01:53:29.465Z,98356.22
2022-10-28T01:56:00.246Z,98340.50
2022-10-28T01:58:31.095Z,98345.13
2022-10-28T02:01:01.506Z,98342.94
2022-10-28T02:03:29.589Z,98343.22
2022-10-28T02:05:58.490Z,98343.47
2022-10-28T02:08:53.376Z,98336.19
2022-10-28T02:11:32.830Z,98328.31
2022-10-28T02:14:07.452Z,98316.72
2022-10-28T02:16:42.910Z,98321.03
2022-10-28T02:19:17.419Z,98313.66
2022-10-28T02:21:55.761Z,98312.56
2022-10-28T02:24:34.471Z,98300.13
2022-10-28T02:27:12.784Z,98294.88
2022-10-28T02:29:45.868Z,98284.75
2022-10-28T02:32:17.673Z,98278.41
2022-10-28T02:34:49.299Z,98288.91
2022-10-28T02:37:23.042Z,98284.56
2022-10-28T02:39:55.404Z,98273.25
2022-10-28T02:42:26.221Z,98276.50
2022-10-28T02:44:57.282Z,98297.81
2022-10-28T02:47:28.819Z,98305.94
2022-10-28T02:50:00.692Z,98311.38
2022-10-28T02:52:30.227Z,98291.38
2022-10-28T02:54:59.036Z,98309.50
2022-10-28T02:57:28.149Z,98317.34
2022-10-28T02:59:57.385Z,98304.00
2022-10-28T03:02:24.545Z,98322.09
2022-10-28T03:04:51.400Z,98318.25
2022-10-28T03:07:19.966Z,98319.31
2022-10-28T03:09:46.807Z,98330.59
2022-10-28T03:12:13.629Z,98329.16
2022-10-28T03:14:41.126Z,98319.44
2022-10-28T03:17:07.840Z,98315.81
2022-10-28T03:19:34.533Z,98311.69
2022-10-28T03:22:01.194Z,98316.50
2022-10-28T03:24:29.167Z,98306.22
2022-10-28T03:26:55.948Z,98305.44
2022-10-28T03:29:22.615Z,98313.88
2022-10-28T03:31:49.245Z,98323.09
2022-10-28T03:34:15.879Z,98325.44
2022-10-28T03:36:42.592Z,98336.25
2022-10-28T03:39:09.314Z,98328.63
2022-10-28T03:41:37.346Z,98330.78
2022-10-28T03:44:04.159Z,98329.47
2022-10-28T03:46:33.585Z,98330.56
2022-10-28T03:49:02.564Z,98317.47
2022-10-28T03:51:29.241Z,98314.50
2022-10-28T03:53:55.875Z,98315.00
2022-10-28T03:56:22.614Z,98306.34
2022-10-28T04:01:17.551Z,98305.75
2022-10-28T04:03:44.247Z,98287.06
2022-10-28T04:06:10.991Z,98277.59
2022-10-28T04:08:37.805Z,98264.81
2022-10-28T04:11:04.745Z,98270.28
2022-10-28T04:13:31.412Z,98277.06
2022-10-28T04:15:59.472Z,98289.00
2022-10-28T04:18:26.184Z,98292.56
2022-10-28T04:20:52.851Z,98293.75
2022-10-28T04:23:19.519Z,98291.78
2022-10-28T04:25:46.230Z,98285.13
2022-10-28T04:28:12.908Z,98287.84
2022-10-28T04:30:39.548Z,98292.94
2022-10-28T04:33:09.161Z,98294.91
2022-10-28T04:35:39.123Z,98274.22
2022-10-28T04:38:05.821Z,98279.66
2022-10-28T04:40:32.547Z,98277.91
2022-10-28T04:42:59.188Z,98280.63
2022-10-28T04:45:25.802Z,98274.66
2022-10-28T04:47:57.030Z,98278.81
2022-10-28T04:50:25.067Z,98259.69
2022-10-28T04:52:51.985Z,98259.81
2022-10-28T04:55:19.011Z,98261.88
2022-10-28T04:57:53.952Z,98257.41
2022-10-28T05:00:20.824Z,98259.00
2022-10-28T05:02:47.578Z,98256.69
2022-10-28T05:05:14.603Z,98251.63
2022-10-28T05:07:42.610Z,98248.56
2022-10-28T05:10:09.799Z,98251.31
2022-10-28T05:12:36.392Z,98246.22
2022-10-28T05:15:03.071Z,98250.91
2022-10-28T05:17:29.698Z,98237.25
2022-10-28T05:19:56.355Z,98239.06
2022-10-28T05:22:23.013Z,98233.75
2022-10-28T05:24:51.000Z,98241.91
2022-10-28T05:27:17.649Z,98235.38
2022-10-28T05:29:44.320Z,98234.19
2022-10-28T05:32:11.003Z,98229.94
2022-10-28T05:34:37.673Z,98220.09
2022-10-28T05:37:04.258Z,98227.88
2022-10-28T05:39:30.839Z,98229.72
2022-10-28T05:41:58.805Z,98227.38
2022-10-28T05:44:25.461Z,98229.53
2022-10-28T05:46:52.110Z,98226.63
2022-10-28T05:49:20.390Z,98232.06
2022-10-28T05:51:47.107Z,98235.44
2022-10-28T05:54:13.788Z,98234.44
2022-10-28T05:56:40.481Z,98232.84
2022-10-28T05:59:08.460Z,98235.19
2022-10-28T06:01:35.187Z,98229.63
2022-10-28T06:04:01.969Z,98241.97
2022-10-28T06:06:28.880Z,98231.56
2022-10-28T06:08:55.517Z,98235.69
2022-10-28T06:11:20.626Z,98230.97
2022-10-28T06:13:47.274Z,98236.69
2022-10-28T06:16:15.228Z,98232.34
2022-10-28T06:18:41.856Z,98235.56
2022-10-28T06:21:08.708Z,98229.28
2022-10-28T06:23:35.532Z,98236.88
2022-10-28T06:26:03.505Z,98235.81
2022-10-28T06:28:31.033Z,98239.59
2022-10-28T06:31:00.683Z,98232.03
2022-10-28T06:33:28.697Z,98242.06
2022-10-28T06:35:58.569Z,98237.25
2022-10-28T06:38:26.518Z,98236.59
2022-10-28T06:40:53.485Z,98238.22
2022-10-28T06:43:20.183Z,98238.41
2022-10-28T06:45:52.260Z,98237.56
2022-10-28T06:48:20.468Z,98238.72
2022-10-28T06:50:48.622Z,98241.50
2022-10-28T06:53:15.275Z,98233.50
2022-10-28T06:55:41.959Z,98222.13
2022-10-28T06:58:09.644Z,98223.41
2022-10-28T07:00:36.529Z,98234.84
2022-10-28T07:03:03.430Z,98226.97
2022-10-28T07:05:30.188Z,98225.84
2022-10-28T07:07:58.290Z,98241.13
2022-10-28T07:10:25.096Z,98249.66
2022-10-28T07:12:52.847Z,98252.53
2022-10-28T07:15:19.777Z,98261.22
2022-10-28T07:17:52.794Z,98263.50
2022-10-28T07:20:19.527Z,98265.75
2022-10-28T07:22:46.185Z,98264.44
2022-10-28T07:25:15.114Z,98263.97
2022-10-28T07:27:41.897Z,98261.53
2022-10-28T07:30:10.083Z,98266.22
2022-10-28T07:32:36.840Z,98268.97
2022-10-28T07:35:03.827Z,98273.47
2022-10-28T07:37:30.568Z,98275.72
2022-10-28T07:39:57.298Z,98284.09
2022-10-28T07:42:25.561Z,98268.47
2022-10-28T07:44:52.384Z,98273.16
2022-10-28T07:47:21.380Z,98274.25
2022-10-28T07:49:48.676Z,98279.59
2022-10-28T07:52:15.858Z,98273.78
2022-10-28T07:54:42.572Z,98286.69
2022-10-28T07:57:09.279Z,98279.13
2022-10-28T07:59:37.349Z,98278.44
2022-10-28T08:02:04.646Z,98274.44
2022-10-28T08:04:31.813Z,98281.81
2022-10-28T08:06:59.122Z,98284.72
2022-10-28T08:09:25.938Z,98286.47
2022-10-28T08:11:55.672Z,98283.91
2022-10-28T08:14:22.577Z,98284.03
2022-10-28T08:16:50.638Z,98275.91
2022-10-28T08:19:17.312Z,98285.16
2022-10-28T08:21:44.002Z,98272.69
2022-10-28T08:24:10.726Z,98278.94
2022-10-28T08:26:38.631Z,98286.75
2022-10-28T08:29:05.382Z,98283.00
2022-10-28T08:31:32.238Z,98281.75
2022-10-28T08:34:00.303Z,98273.25
2022-10-28T08:36:27.044Z,98264.81
2022-10-28T08:38:53.705Z,98286.06
2022-10-28T08:41:29.852Z,98285.00
2022-10-28T08:44:24.501Z,98287.53
2022-10-28T08:47:04.093Z,98282.53
2022-10-28T08:49:34.649Z,98279.66
2022-10-28T08:52:08.238Z,98277.09
2022-10-28T08:54:37.189Z,98283.59
2022-10-28T08:57:08.316Z,98285.41
2022-10-28T08:59:38.759Z,98278.31
2022-10-28T09:02:19.831Z,98279.16
2022-10-28T09:04:49.261Z,98276.56
2022-10-28T09:07:18.501Z,98281.94
2022-10-28T09:09:45.762Z,98280.66
2022-10-28T09:12:25.319Z,98274.59
2022-10-28T09:15:06.019Z,98279.88
2022-10-28T09:17:42.338Z,98281.97
2022-10-28T09:20:18.730Z,98283.84
2022-10-28T09:22:55.605Z,98288.66
2022-10-28T09:25:27.418Z,98288.00
2022-10-28T09:28:10.134Z,98277.97
2022-10-28T09:30:48.765Z,98279.50
2022-10-28T09:33:37.262Z,98285.09
2022-10-28T09:36:11.306Z,98282.88
2022-10-28T09:38:39.003Z,98275.22
2022-10-28T09:41:15.452Z,98280.66
2022-10-28T09:43:48.849Z,98283.22
2022-10-28T09:46:18.313Z,98281.59
2022-10-28T09:48:48.093Z,98284.34
2022-10-28T09:51:33.449Z,98277.91
2022-10-28T09:54:02.401Z,62402.38
2022-10-28T09:56:30.780Z,62402.38
2022-10-28T09:59:01.512Z,62402.38
2022-10-28T10:01:32.759Z,62402.38
2022-10-28T10:04:00.039Z,62402.38
2022-10-28T10:06:32.522Z,62402.38
2022-10-28T10:09:00.199Z,62402.38
2022-10-28T10:11:33.210Z,62402.38
2022-10-28T10:14:04.989Z,62402.38
2022-10-28T10:16:41.214Z,62402.38
2022-10-28T10:19:09.792Z,62402.38
2022-10-28T10:21:45.910Z,62402.38
2022-10-28T10:24:32.632Z,62402.38
2022-10-28T10:27:02.930Z,62402.38
2022-10-28T10:29:32.540Z,98283.38
2022-10-28T10:32:22.887Z,98276.31
2022-10-28T10:34:56.427Z,98272.63
2022-10-28T10:37:24.860Z,98286.91
2022-10-28T10:40:04.886Z,98277.66
2022-10-28T10:42:31.668Z,98275.41
2022-10-28T10:45:02.992Z,98289.28
2022-10-28T10:47:30.749Z,98277.28
2022-10-28T10:50:22.599Z,98271.78
2022-10-28T10:52:55.067Z,98276.59
2022-10-28T10:55:34.335Z,98273.84
2022-10-28T10:58:02.658Z,98263.75
2022-10-28T11:00:35.188Z,98268.28
2022-10-28T11:03:03.624Z,98258.25
2022-10-28T11:05:35.877Z,98261.38
2022-10-28T11:08:07.656Z,98260.38
2022-10-28T11:10:35.292Z,98253.59
2022-10-28T11:13:05.222Z,98245.72
2022-10-28T11:15:33.042Z,98254.78
2022-10-28T11:18:02.277Z,98255.44
2022-10-28T11:20:43.894Z,98254.38
2022-10-28T11:23:44.057Z,98254.31
2022-10-28T11:26:13.700Z,98246.88
2022-10-28T11:28:55.665Z,98239.59
2022-10-28T11:31:46.185Z,98232.06
2022-10-28T11:34:34.262Z,98235.19
2022-10-28T11:37:11.426Z,98233.97
2022-10-28T11:39:49.633Z,98225.31
2022-10-28T11:42:24.880Z,98230.63
2022-10-28T11:44:56.683Z,98227.03
2022-10-28T11:47:57.358Z,98217.75
2022-10-28T11:50:31.936Z,98226.25
2022-10-28T11:53:28.194Z,98214.19
2022-10-28T11:56:09.314Z,98211.41
2022-10-28T11:58:46.328Z,98213.31
2022-10-28T12:01:27.614Z,98209.91
2022-10-28T12:04:07.431Z,98204.72
2022-10-28T12:06:57.396Z,98209.34
2022-10-28T12:09:35.073Z,98206.66
2022-10-28T12:12:13.860Z,98208.88
2022-10-28T12:14:52.803Z,98217.41
2022-10-28T12:17:28.423Z,98211.06
2022-10-28T12:19:59.059Z,98211.97
2022-10-28T12:22:30.270Z,98205.47
2022-10-28T12:25:01.647Z,98198.50
2022-10-28T12:27:32.664Z,98198.50
2022-10-28T12:30:03.430Z,98200.88
2022-10-28T12:32:35.017Z,98203.28
2022-10-28T12:35:07.835Z,98196.09
2022-10-28T12:37:42.067Z,98193.72
2022-10-28T12:40:16.125Z,98193.72
2022-10-28T12:42:50.698Z,98195.16
2022-10-28T12:45:33.824Z,98195.72
2022-10-28T12:48:07.426Z,98199.66
2022-10-28T12:50:40.324Z,98187.16
2022-10-28T12:53:24.660Z,98185.44
2022-10-28T12:55:58.252Z,98190.44
2022-10-28T12:58:33.062Z,98184.75
2022-10-28T13:01:03.879Z,98179.84
2022-10-28T13:03:31.732Z,98175.19
2022-10-28T13:06:15.640Z,98177.81
2022-10-28T13:09:02.851Z,98175.94
2022-10-28T13:12:00.727Z,98187.34
2022-10-28T13:14:45.178Z,98192.50
2022-10-28T13:17:28.859Z,98199.50
2022-10-28T13:20:02.157Z,98195.16
2022-10-28T13:22:48.291Z,98198.28
2022-10-28T13:25:33.133Z,98198.47
2022-10-28T13:28:00.686Z,98188.44
2022-10-28T13:30:32.002Z,98187.81
2022-10-28T13:33:06.919Z,98186.56
2022-10-28T13:35:33.847Z,98179.97
2022-10-28T13:38:02.048Z,98174.16
2022-10-28T13:41:05.992Z,98172.94
2022-10-28T13:43:57.638Z,98181.78
2022-10-28T13:47:04.458Z,98188.94
2022-10-28T13:49:34.307Z,98179.44
2022-10-28T13:52:04.258Z,98181.78
2022-10-28T13:54:33.546Z,98184.25
2022-10-28T13:57:13.811Z,98182.81
2022-10-28T13:59:51.816Z,98182.53
2022-10-28T14:02:35.218Z,98186.09
2022-10-28T14:05:07.395Z,98184.28
2022-10-28T14:07:35.809Z,98184.22
2022-10-28T14:10:21.017Z,98180.34
2022-10-28T14:12:51.697Z,98187.47
2022-10-28T14:15:25.302Z,98186.88
2022-10-28T14:18:00.848Z,98181.75
2022-10-28T14:20:40.620Z,98179.22
2022-10-28T14:23:49.416Z,98180.81
2022-10-28T14:26:16.087Z,98182.97
2022-10-28T14:28:53.494Z,98186.31
2022-10-28T14:31:35.745Z,98193.06
2022-10-28T14:34:38.853Z,98188.25
2022-10-28T14:37:28.628Z,98190.53
2022-10-28T14:40:14.070Z,98192.25
2022-10-28T14:43:24.005Z,98183.41
2022-10-28T14:46:05.772Z,98181.34
2022-10-28T14:48:52.175Z,98181.22
2022-10-28T14:51:21.889Z,98192.22
2022-10-28T14:53:53.065Z,98197.53
2022-10-28T14:58:58.042Z,98189.84
2022-10-28T15:01:27.607Z,98191.41
2022-10-28T15:03:58.745Z,98184.38
2022-10-28T15:06:28.172Z,98184.38
2022-10-28T15:09:02.628Z,98193.06
2022-10-28T15:11:30.451Z,98189.34
2022-10-28T15:14:11.991Z,98185.78
2022-10-28T15:16:46.533Z,98195.34
2022-10-28T15:19:16.760Z,98189.38
2022-10-28T15:21:43.529Z,98197.63
2022-10-28T15:24:14.143Z,98199.59
2022-10-28T15:26:40.916Z,98200.84
2022-10-28T15:29:09.899Z,98206.22
2022-10-28T15:32:04.896Z,98202.69
2022-10-28T15:34:31.731Z,98207.69
2022-10-28T15:39:32.069Z,98204.03
2022-10-28T15:41:59.941Z,98209.84
2022-10-28T15:44:31.502Z,98210.44
2022-10-28T15:46:59.525Z,98211.47
2022-10-28T15:49:34.185Z,98196.13
2022-10-28T15:52:20.562Z,98201.72
2022-10-28T15:54:56.229Z,98203.56
2022-10-28T15:57:25.252Z,98202.16
2022-10-28T16:00:21.061Z,98205.81
2022-10-28T16:02:56.067Z,98209.75
2022-10-28T16:05:46.708Z,98216.66
2022-10-28T16:08:20.631Z,98196.16
2022-10-28T16:10:51.327Z,98200.75
2022-10-28T16:13:25.815Z,98205.81
2022-10-28T16:15:57.472Z,98219.41
2022-10-28T16:18:25.835Z,98212.19
2022-10-28T16:20:53.691Z,98211.25
2022-10-28T16:23:23.038Z,98210.66
2022-10-28T16:25:51.351Z,98215.69
2022-10-28T16:28:24.633Z,98216.06
2022-10-28T16:30:53.654Z,98224.56
2022-10-28T16:33:27.899Z,98223.63
2022-10-28T16:35:54.725Z,98222.38
2022-10-28T16:38:21.706Z,98222.25
2022-10-28T16:40:54.382Z,98210.13
2022-10-28T16:43:23.472Z,98207.03
2022-10-28T16:45:51.654Z,98209.03
2022-10-28T16:48:20.346Z,98213.72
2022-10-28T16:50:53.646Z,98216.66
2022-10-28T16:53:21.585Z,98212.91
2022-10-28T16:55:48.770Z,98218.81
2022-10-28T16:58:21.844Z,98216.91
2022-10-28T17:00:51.483Z,98223.03
2022-10-28T17:03:18.148Z,98214.00
2022-10-28T17:05:44.924Z,98214.66
2022-10-28T17:08:11.581Z,98223.78
2022-10-28T17:10:40.348Z,98217.81
2022-10-28T17:13:08.739Z,98223.06
2022-10-28T17:15:36.773Z,98211.19
2022-10-28T17:18:03.734Z,98221.63
2022-10-28T17:20:30.663Z,98229.03
2022-10-28T17:22:58.133Z,98233.84
2022-10-28T17:25:24.981Z,98234.72
2022-10-28T17:27:52.798Z,98235.75
2022-10-28T17:30:20.124Z,98238.50
2022-10-28T17:32:52.470Z,98245.41
2022-10-28T17:35:20.427Z,98263.13
2022-10-28T17:37:47.074Z,98256.69
2022-10-28T17:40:14.323Z,98261.38
2022-10-28T17:42:41.019Z,98263.66
2022-10-28T17:45:09.615Z,98264.25
2022-10-28T17:47:36.376Z,98261.13
2022-10-28T17:50:05.562Z,98287.81
2022-10-28T17:52:35.691Z,98270.28
2022-10-28T17:55:05.878Z,98270.63
2022-10-28T17:57:32.652Z,98272.50
2022-10-28T17:59:59.532Z,98277.84
2022-10-28T18:02:26.494Z,98274.78
2022-10-28T18:04:53.303Z,98283.03
2022-10-28T18:07:21.319Z,98282.75
2022-10-28T18:09:48.009Z,98285.69
2022-10-28T18:12:14.741Z,98292.50
2022-10-28T18:14:41.498Z,98298.13
2022-10-28T18:17:08.336Z,98300.28
2022-10-28T18:19:35.074Z,98289.75
2022-10-28T18:22:02.612Z,98307.16
2022-10-28T18:24:30.972Z,98293.84
2022-10-28T18:26:57.661Z,98294.84
2022-10-28T18:29:24.695Z,98298.13
2022-10-28T18:31:51.752Z,98301.22
2022-10-28T18:34:19.072Z,98299.47
2022-10-28T18:36:46.607Z,98289.69
2022-10-28T18:39:13.301Z,98292.66
2022-10-28T18:41:42.892Z,98293.09
2022-10-28T18:44:12.119Z,98296.66
2022-10-28T18:46:38.855Z,98299.13
2022-10-28T18:49:07.286Z,98288.63
2022-10-28T18:51:34.815Z,98287.16
2022-10-28T18:54:02.177Z,98288.31
2022-10-28T18:56:30.223Z,98286.53
2022-10-28T18:58:59.096Z,98298.56
2022-10-28T19:01:27.700Z,98290.69
2022-10-28T19:03:56.230Z,98296.44
2022-10-28T19:06:23.817Z,98293.03
2022-10-28T19:08:51.836Z,98292.09
2022-10-28T19:11:19.537Z,98292.66
2022-10-28T19:13:46.918Z,98287.94
2022-10-28T19:16:15.112Z,98294.06
2022-10-28T19:18:41.922Z,98305.88
2022-10-28T19:21:12.622Z,98306.34
2022-10-28T19:23:40.138Z,98309.44
2022-10-28T19:26:07.891Z,98307.69
2022-10-28T19:28:39.552Z,98300.75
2022-10-28T19:31:08.329Z,98297.78
2022-10-28T19:33:38.399Z,98309.31
2022-10-28T19:36:07.689Z,98303.53
2022-10-28T19:38:36.334Z,98300.78
2022-10-28T19:41:08.788Z,98296.09
2022-10-28T19:43:35.994Z,98294.97
2022-10-28T19:46:13.388Z,98300.59
2022-10-28T19:48:43.486Z,98312.00
2022-10-28T19:51:14.134Z,98313.91
2022-10-28T19:53:41.040Z,98303.47
2022-10-28T19:56:07.884Z,98309.09
2022-10-28T19:58:35.038Z,98307.69
2022-10-28T20:01:03.466Z,98302.78
2022-10-28T20:03:34.392Z,98311.16
2022-10-28T20:06:06.134Z,98307.97
2022-10-28T20:08:37.086Z,98321.22
2022-10-28T20:11:06.197Z,98331.28
2022-10-28T20:13:33.846Z,98323.56
2022-10-28T20:16:02.804Z,98316.38
2022-10-28T20:18:30.994Z,98314.94
2022-10-28T20:21:04.446Z,98324.81
2022-10-28T20:23:32.360Z,98328.53
2022-10-28T20:25:59.933Z,98331.81
2022-10-28T20:28:26.627Z,98327.59
2022-10-28T20:30:58.514Z,98327.66
2022-10-28T20:33:25.870Z,98329.72
2022-10-28T20:35:53.429Z,98334.13
2022-10-28T20:38:21.841Z,98341.88
2022-10-28T20:40:49.121Z,98337.81
2022-10-28T20:43:16.936Z,98335.91
2022-10-28T20:45:43.630Z,98341.56
2022-10-28T20:48:10.379Z,98331.53
2022-10-28T20:50:37.068Z,98339.63
2022-10-28T20:53:03.817Z,98346.56
2022-10-28T20:55:31.865Z,98332.50
2022-10-28T20:57:58.750Z,98336.19
2022-10-28T21:00:25.415Z,98331.19
2022-10-28T21:02:55.367Z,98339.28
2022-10-28T21:05:22.586Z,98336.38
2022-10-28T21:07:49.275Z,98339.13
2022-10-28T21:10:17.270Z,98341.88
2022-10-28T21:12:45.256Z,98346.06
2022-10-28T21:15:12.542Z,98354.00
2022-10-28T21:17:39.607Z,98363.69
2022-10-28T21:20:07.559Z,98362.25
2022-10-28T21:22:35.009Z,98356.78
2022-10-28T21:25:02.805Z,98355.53
2022-10-28T21:27:29.742Z,98359.41
2022-10-28T21:29:57.904Z,98366.34
2022-10-28T21:32:25.010Z,98371.53
2022-10-28T21:34:51.871Z,98377.16
2022-10-28T21:37:18.760Z,98377.00
2022-10-28T21:39:47.100Z,98383.63
2022-10-28T21:42:14.257Z,98375.41
2022-10-28T21:44:42.374Z,98379.25
2022-10-28T21:47:10.456Z,98373.63
2022-10-28T21:49:37.240Z,98370.09
2022-10-28T21:52:04.241Z,98368.31
2022-10-28T21:54:32.357Z,98364.31
2022-10-28T21:56:58.986Z,98375.09
2022-10-28T21:59:25.652Z,98370.56
2022-10-28T22:01:52.498Z,98368.31
2022-10-28T22:04:20.671Z,98375.09
2022-10-28T22:09:18.964Z,98383.09
2022-10-28T22:11:45.707Z,98372.78
2022-10-28T22:14:12.387Z,98374.72
2022-10-28T22:16:39.254Z,98374.22
2022-10-28T22:19:07.924Z,98374.38
2022-10-28T22:21:40.523Z,98377.94
2022-10-28T22:24:07.954Z,98380.03
2022-10-28T22:26:34.849Z,98376.16
2022-10-28T22:29:01.584Z,98383.72
2022-10-28T22:31:33.580Z,98388.38
2022-10-28T22:34:00.721Z,98384.97
2022-10-28T22:36:31.420Z,98381.88
2022-10-28T22:38:59.496Z,98378.31
2022-10-28T22:41:28.319Z,98369.00
2022-10-28T22:43:56.687Z,98367.31
2022-10-28T22:46:26.195Z,98372.91
2022-10-28T22:48:53.615Z,98369.06
2022-10-28T22:51:20.980Z,98377.59
2022-10-28T22:53:47.685Z,98377.72
2022-10-28T22:56:18.559Z,98377.28
2022-10-28T22:58:45.287Z,98367.09
2022-10-28T23:01:13.699Z,98366.16
2022-10-28T23:03:42.586Z,98364.81
2022-10-28T23:06:11.003Z,98358.69
2022-10-28T23:08:38.794Z,98356.88
2022-10-28T23:11:05.530Z,98364.31
2022-10-28T23:13:33.661Z,98368.63
2022-10-28T23:16:03.813Z,98367.97
2022-10-28T23:18:30.626Z,98368.03
2022-10-28T23:20:57.366Z,98371.66
2022-10-28T23:23:24.291Z,98372.50
2022-10-28T23:25:54.988Z,98373.34
2022-10-28T23:28:21.816Z,98371.25
2022-10-28T23:30:50.632Z,98375.78
2022-10-28T23:33:17.223Z,98382.66
2022-10-28T23:35:44.243Z,98386.19
2022-10-28T23:38:11.813Z,98393.22
2022-10-28T23:40:39.206Z,98387.06
2022-10-28T23:43:06.325Z,98395.53
2022-10-28T23:45:33.680Z,98403.22
2022-10-28T23:48:02.172Z,98403.78
2022-10-28T23:50:28.994Z,98403.50
2022-10-28T23:52:59.039Z,98409.25
2022-10-28T23:55:26.238Z,98406.50
2022-10-28T23:57:56.359Z,98400.53
